Flight Track Log - Related Links

Times and Time Zones

All times are in EDT time to prevent confusion due to time zone crossing. See the N778AN flight status page for this flight to view local times or setup timezone preferences in your user account.

Time Position Orientation Groundspeed Altitude Reporting Facility
EDT Latitude Longitude Course Direction KTS MPH feet Rate Location/Type
Sun 08:38:07 PM 40.6370 -73.7900 123° Southeast 155 178  Level FlightAware ADS-B
Sun 08:38:32 PM 40.6250 -73.7710 130° Southeast 157 181 1,000 2,250 Climbing FlightAware ADS-B
Sun 08:38:47 PM 40.6170 -73.7630 143° Southeast 152 175 1,500 1,400 Climbing FlightAware ADS-B
Sun 08:39:02 PM 40.6100 -73.7500 125° Southeast 163 188 1,700 1,000 Climbing FlightAware ADS-B
Sun 08:39:17 PM 40.6080 -73.7360 101° East 171 197 2,000 1,067 Climbing FlightAware ADS-B
Sun 08:39:47 PM 40.6060 -73.7010 94° East 206 237 2,500 1,418 Climbing FlightAware ADS-B
Sun 08:40:12 PM 40.6030 -73.6690 97° East 217 250 3,300 1,636 Climbing FlightAware ADS-B
Sun 08:40:42 PM 40.6010 -73.6260 93° East 247 284 4,000 1,636 Climbing FlightAware ADS-B
Sun 08:41:07 PM 40.5980 -73.5880 96° East 258 297 4,800 2,100 Climbing FlightAware ADS-B
Sun 08:41:22 PM 40.5910 -73.5650 112° Southeast 263 303 5,400 2,471 Climbing FlightAware ADS-B
Sun 08:41:41 PM 40.5800 -73.5360 117° Southeast 265 305 6,200 2,211 Climbing FlightAware ADS-B
Sun 08:42:00 PM 40.5694 -73.5085 117° Southeast 271 312 6,800 2,167 Climbing FlightAware ADS-B
Sun 08:42:17 PM 40.5597 -73.4831 117° Southeast 275 316 7,500 2,438 Climbing FlightAware ADS-B
Sun 08:42:32 PM 40.5512 -73.4604 116° Southeast 276 318 8,100 2,323 Climbing FlightAware ADS-B
Sun 08:42:48 PM 40.5420 -73.4352 116° Southeast 278 320 8,700 2,100 Climbing FlightAware ADS-B
Sun 08:42:52 PM 40.5405 -73.4306 113° Southeast 278 320 8,800 2,250 Climbing FlightAware ADS-B
Sun 08:42:56 PM 40.5388 -73.4237 108° East 279 321 9,000 2,500 Climbing FlightAware ADS-B
Sun 08:43:04 PM 40.5365 -73.4090 102° East 280 322 9,300 2,100 Climbing FlightAware ADS-B
Sun 08:43:16 PM 40.5350 -73.3896 96° East 283 326 9,700 2,118 Climbing FlightAware ADS-B
Sun 08:43:21 PM 40.5351 -73.3807 89° East 284 327 9,900 1,200 Climbing FlightAware ADS-B
Sun 08:43:51 PM 40.5389 -73.3261 85° East 305 351 10,400 1,091 Climbing FlightAware ADS-B
Sun 08:43:54 PM 40.5402 -73.3204 73° East 316 364 10,500 1,800 Climbing FlightAware ADS-B
Sun 08:44:01 PM 40.5437 -73.3091 68° East 320 368 10,700 2,462 Climbing FlightAware ADS-B
Sun 08:44:33 PM 40.5677 -73.2543 60° Northeast 328 377 12,100 2,806 Climbing FlightAware ADS-B
Sun 08:45:03 PM 40.5908 -73.2008 60° Northeast 337 388 13,600 2,951 Climbing FlightAware ADS-B
Sun 08:45:34 PM 40.6151 -73.1443 60° Northeast 346 398 15,100 2,852 Climbing FlightAware ADS-B
Sun 08:46:04 PM 40.6388 -73.0889 61° Northeast 352 405 16,500 2,889 Climbing FlightAware ADS-B
Sun 08:46:28 PM 40.6581 -73.0444 60° Northeast 356 410 17,700 2,880 Climbing FlightAware ADS-B
Sun 08:46:54 PM 40.6836 -72.9984 54° Northeast 360 414 18,900 2,842 Climbing FlightAware ADS-B
Sun 08:47:25 PM 40.7188 -72.9469 48° Northeast 364 419 20,400 2,613 Climbing FlightAware ADS-B
Sun 08:47:56 PM 40.7542 -72.8953 48° Northeast 373 429 21,600 2,419 Climbing FlightAware ADS-B
Sun 08:48:27 PM 40.7905 -72.8421 48° Northeast 380 437 22,900 2,364 Climbing FlightAware ADS-B
Sun 08:49:02 PM 40.8321 -72.7814 48° Northeast 387 445 24,200 2,348 Climbing FlightAware ADS-B
Sun 08:49:36 PM 40.8724 -72.7220 48° Northeast 389 448 25,600 2,438 Climbing FlightAware ADS-B
Sun 08:50:06 PM 40.9085 -72.6691 48° Northeast 387 445 26,800 2,129 Climbing FlightAware ADS-B
Sun 08:50:38 PM 40.9465 -72.6133 48° Northeast 391 450 27,800 1,808 Climbing FlightAware ADS-B
Sun 08:51:19 PM 40.9969 -72.5392 48° Northeast 399 459 29,000 1,500 Climbing FlightAware ADS-B
Sun 08:52:22 PM 41.0720 -72.4270 48° Northeast 410 472 30,400 1,481 Climbing FlightAware ADS-B
Sun 08:52:40 PM 41.0985 -72.3887 47° Northeast 412 474 31,000 1,575 Climbing FlightAware ADS-B
Sun 08:53:42 PM 41.1760 -72.2740 48° Northeast 417 480 32,500 1,290 Climbing FlightAware ADS-B
Sun 08:54:27 PM 41.2300 -72.1930 48° Northeast 424 488 33,300 1,059 Climbing FlightAware ADS-B
Sun 08:55:07 PM 41.2740 -72.1270 48° Northeast 428 493 34,000 1,125 Climbing FlightAware ADS-B
Sun 08:55:47 PM 41.3350 -72.0350 49° Northeast 435 501 34,800 1,129 Climbing FlightAware ADS-B
Sun 08:56:32 PM 41.3950 -71.9450 48° Northeast 439 505 35,600 1,200 Climbing FlightAware ADS-B
Sun 08:57:12 PM 41.4510 -71.8620 48° Northeast 438 504 36,500 1,059 Climbing FlightAware ADS-B
Sun 08:57:57 PM 41.5100 -71.7720 49° Northeast 443 510 37,100 857 Climbing FlightAware ADS-B
Sun 08:59:32 PM 41.6350 -71.5820 49° Northeast 446 513 38,500 814 Climbing FlightAware ADS-B
Sun 09:00:17 PM 41.6990 -71.4850 49° Northeast 444 511 39,000 353 Climbing FlightAware ADS-B
Sun 09:00:57 PM 41.7550 -71.3990 49° Northeast 443 510 39,000  Level FlightAware ADS-B
Sun 09:01:37 PM 41.8080 -71.3180 49° Northeast 442 509 39,000  Level FlightAware ADS-B
Sun 09:02:22 PM 41.8680 -71.2260 49° Northeast 440 506 39,000  Level FlightAware ADS-B
Sun 09:03:57 PM 41.9920 -71.0340 49° Northeast 442 509 39,000  Level FlightAware ADS-B
Sun 09:04:42 PM 42.0540 -70.9380 49° Northeast 442 509 39,000  Level FlightAware ADS-B
Sun 09:05:22 PM 42.1110 -70.8490 49° Northeast 442 509 39,000  Level FlightAware ADS-B
Sun 09:06:07 PM 42.1710 -70.7550 49° Northeast 442 509 39,000  Level FlightAware ADS-B
Sun 09:06:47 PM 42.2230 -70.6720 50° Northeast 441 507 39,000  Level FlightAware ADS-B
Sun 09:07:27 PM 42.2710 -70.5970 49° Northeast 441 507 39,000  Level FlightAware ADS-B
Sun 09:08:12 PM 42.3360 -70.4940 49° Northeast 442 509 39,000  Level FlightAware ADS-B
Sun 09:08:52 PM 42.3880 -70.4110 50° Northeast 442 509 39,000  Level FlightAware ADS-B
Sun 09:09:32 PM 42.4450 -70.3210 49° Northeast 443 510 39,000  Level FlightAware ADS-B
Sun 09:10:17 PM 42.5030 -70.2290 49° Northeast 445 512 39,000  Level FlightAware ADS-B
Sun 09:10:57 PM 42.5550 -70.1460 50° Northeast 447 514 39,000  Level FlightAware ADS-B
Sun 09:11:42 PM 42.6150 -70.0500 50° Northeast 449 517 39,000  Level FlightAware ADS-B
Sun 09:12:22 PM 42.6710 -69.9580 50° Northeast 450 518 39,000  Level FlightAware ADS-B
Sun 09:14:07 PM 42.8020 -69.7470 50° Northeast 450 518 39,000  Level FlightAware ADS-B
Sun 09:14:57 PM 42.8770 -69.6250 50° Northeast 450 518 39,000  Level FlightAware ADS-B
Sun 09:16:32 PM 43.0020 -69.4210 50° Northeast 451 519 39,000  Level FlightAware ADS-B
Sun 09:17:32 PM 43.0810 -69.2900 50° Northeast 453 521 39,000  Level FlightAware ADS-B
Sun 09:19:22 PM 43.2230 -69.0570 50° Northeast 454 522 39,000  Level FlightAware ADS-B
Sun 09:20:02 PM 43.2840 -68.9540 51° Northeast 454 522 39,000  Level FlightAware ADS-B
Sun 09:20:47 PM 43.3450 -68.8520 51° Northeast 454 522 39,000  Level FlightAware ADS-B
Sun 09:21:42 PM 43.4120 -68.7400 51° Northeast 453 521 39,000  Level FlightAware ADS-B
Sun 09:22:17 PM 43.4580 -68.6640 50° Northeast 454 522 39,000  Level FlightAware ADS-B
Sun 09:23:02 PM 43.5140 -68.5670 51° Northeast 448 516 39,000  Level FlightAware ADS-B
Sun 09:23:42 PM 43.5580 -68.4920 51° Northeast 448 516 39,000  Level FlightAware ADS-B
Sun 09:24:47 PM 43.6560 -68.3260 51° Northeast 449 517 39,000  Level FlightAware ADS-B
Sun 09:25:27 PM 43.7100 -68.2340 51° Northeast 450 518 39,000  Level FlightAware ADS-B
Sun 09:26:07 PM 43.7630 -68.1440 51° Northeast 450 518 39,000  Level FlightAware ADS-B
Sun 09:26:52 PM 43.8230 -68.0400 51° Northeast 450 518 39,000  Level FlightAware ADS-B
Sun 09:27:32 PM 43.8750 -67.9500 51° Northeast 448 516 39,000  Level FlightAware ADS-B
Sun 09:28:17 PM 43.9350 -67.8470 51° Northeast 445 512 39,000  Level FlightAware ADS-B
Sun 09:28:57 PM 43.9860 -67.7590 51° Northeast 441 507 39,000  Level FlightAware ADS-B
Sun 09:29:37 PM 44.0370 -67.6690 52° Northeast 439 505 39,000  Level FlightAware ADS-B
Sun 09:30:22 PM 44.0930 -67.5710 51° Northeast 429 494 39,000  Level FlightAware ADS-B
Sun 09:31:02 PM 44.1420 -67.4850 52° Northeast 426 490 39,000  Level FlightAware ADS-B
Sun 09:31:47 PM 44.1990 -67.3860 51° Northeast 424 488 39,000  Level FlightAware ADS-B
Sun 09:32:27 PM 44.2480 -67.2990 52° Northeast 425 489 39,000  Level FlightAware ADS-B
Sun 09:33:07 PM 44.2980 -67.2100 52° Northeast 425 489 39,000  Level FlightAware ADS-B
Sun 09:33:52 PM 44.3530 -67.1120 52° Northeast 426 490 39,000  Level FlightAware ADS-B
Sun 09:34:32 PM 44.4020 -67.0260 51° Northeast 426 490 39,000  Level FlightAware ADS-B
Sun 09:35:17 PM 44.4570 -66.9250 53° Northeast 432 497 39,000  Level FlightAware ADS-B
Sun 09:35:57 PM 44.5050 -66.8370 53° Northeast 434 499 39,000  Level FlightAware ADS-B
Sun 09:36:37 PM 44.5540 -66.7460 53° Northeast 431 496 39,000  Level FlightAware ADS-B
Sun 09:37:22 PM 44.6080 -66.6450 53° Northeast 433 498 39,000  Level FlightAware ADS-B
Sun 09:38:02 PM 44.6580 -66.5530 53° Northeast 435 501 39,000  Level FlightAware ADS-B
Sun 09:38:42 PM 44.7060 -66.4620 53° Northeast 438 504 39,000  Level FlightAware ADS-B
Sun 09:39:27 PM 44.7600 -66.3600 53° Northeast 439 505 39,000  Level FlightAware ADS-B
Sun 09:40:07 PM 44.8110 -66.2650 53° Northeast 441 507 39,000  Level FlightAware ADS-B
Sun 09:40:52 PM 44.8660 -66.1610 53° Northeast 442 509 39,000  Level FlightAware ADS-B
Sun 09:41:32 PM 44.9160 -66.0670 53° Northeast 443 510 39,000  Level FlightAware ADS-B
Sun 09:42:17 PM 44.9700 -65.9630 54° Northeast 445 512 39,000  Level FlightAware ADS-B
Sun 09:42:57 PM 45.0200 -65.8670 54° Northeast 446 513 39,000  Level FlightAware ADS-B
Sun 09:43:37 PM 45.0690 -65.7730 54° Northeast 446 513 39,000  Level FlightAware ADS-B
Sun 09:44:22 PM 45.1250 -65.6670 53° Northeast 446 513 39,000  Level FlightAware ADS-B
Sun 09:45:02 PM 45.1750 -65.5700 54° Northeast 447 514 39,000  Level FlightAware ADS-B
Sun 09:45:42 PM 45.2230 -65.4760 54° Northeast 447 514 39,000  Level FlightAware ADS-B
Sun 09:46:27 PM 45.2790 -65.3680 54° Northeast 447 514 39,000  Level FlightAware ADS-B
Sun 09:47:07 PM 45.3280 -65.2730 54° Northeast 448 516 39,000  Level FlightAware ADS-B
Sun 09:47:52 PM 45.3830 -65.1640 54° Northeast 449 517 39,000  Level FlightAware ADS-B
Sun 09:48:32 PM 45.4330 -65.0670 54° Northeast 451 519 39,000  Level FlightAware ADS-B
Sun 09:49:17 PM 45.4910 -64.9520 54° Northeast 455 524 39,000  Level FlightAware ADS-B
Sun 09:49:57 PM 45.5380 -64.8580 54° Northeast 456 525 39,000  Level FlightAware ADS-B
Sun 09:50:37 PM 45.5890 -64.7570 54° Northeast 455 524 39,000  Level FlightAware ADS-B
Sun 09:51:22 PM 45.6440 -64.6470 54° Northeast 457 526 39,000  Level FlightAware ADS-B
Sun 09:52:02 PM 45.6950 -64.5460 54° Northeast 457 526 39,000  Level FlightAware ADS-B
Sun 09:52:47 PM 45.7480 -64.4390 55° Northeast 457 526 39,000  Level FlightAware ADS-B
Sun 09:53:27 PM 45.7990 -64.3380 54° Northeast 458 527 39,000  Level FlightAware ADS-B
Sun 09:54:12 PM 45.8510 -64.2310 55° Northeast 459 528 39,000  Level FlightAware ADS-B
Sun 09:55:07 PM 45.9150 -64.1020 54° Northeast 460 529 39,000  Level FlightAware ADS-B
Sun 09:55:47 PM 45.9700 -63.9890 55° Northeast 463 533 39,000  Level FlightAware ADS-B
Sun 09:56:47 PM 46.0380 -63.8500 55° Northeast 463 533 39,000  Level FlightAware ADS-B
Sun 09:57:27 PM 46.0920 -63.7390 55° Northeast 465 535 39,000  Level FlightAware ADS-B
Sun 09:58:07 PM 46.1350 -63.6500 55° Northeast 465 535 39,000  Level FlightAware ADS-B
Sun 09:58:47 PM 46.1770 -63.5640 55° Northeast 465 535 39,000  Level FlightAware ADS-B
Sun 09:59:27 PM 46.2190 -63.4770 55° Northeast 465 535 39,000  Level FlightAware ADS-B
Sun 10:00:17 PM 46.2710 -63.3690 55° Northeast 465 535 39,000  Level FlightAware ADS-B
Sun 10:00:57 PM 46.3130 -63.2820 55° Northeast 465 535 39,000  Level FlightAware ADS-B
Sun 10:01:37 PM 46.3550 -63.1950 55° Northeast 465 535 39,000  Level FlightAware ADS-B
Sun 10:02:17 PM 46.3970 -63.1080 55° Northeast 465 535 39,000  Level FlightAware ADS-B
Sun 10:02:57 PM 46.4390 -63.0220 55° Northeast 465 535 39,000  Level FlightAware ADS-B
Sun 10:03:47 PM 46.4910 -62.9130 55° Northeast 465 535 39,000  Level FlightAware ADS-B
Sun 10:04:27 PM 46.5330 -62.8260 55° Northeast 465 535 39,000  Level FlightAware ADS-B
Sun 10:05:07 PM 46.5750 -62.7390 55° Northeast 465 535 39,000  Level FlightAware ADS-B
Sun 10:05:47 PM 46.7020 -62.4500 57° Northeast 464 534 39,000  Level FlightAware ADS-B
Sun 10:06:27 PM 46.7500 -62.3460 56° Northeast 462 532 39,000  Level FlightAware ADS-B
Sun 10:07:12 PM 46.7970 -62.2450 56° Northeast 462 532 39,000  Level FlightAware ADS-B
Sun 10:07:52 PM 46.8470 -62.1370 56° Northeast 461 531 39,000  Level FlightAware ADS-B
Sun 10:08:42 PM 46.8970 -62.0270 56° Northeast 461 531 39,000  Level FlightAware ADS-B
Sun 10:09:17 PM 46.9500 -61.9090 57° Northeast 461 531 39,000  Level FlightAware ADS-B
Sun 10:10:17 PM 47.0170 -61.7630 56° Northeast 461 531 39,000  Level FlightAware ADS-B
Sun 10:10:57 PM 47.0570 -61.6750 56° Northeast 461 531 39,000  Level FlightAware ADS-B
Sun 10:11:42 PM 47.1180 -61.5370 57° Northeast 462 532 39,000  Level FlightAware ADS-B
Sun 10:12:22 PM 47.1680 -61.4250 57° Northeast 462 532 39,000  Level FlightAware ADS-B
Sun 10:13:17 PM 47.2280 -61.2920 56° Northeast 463 533 39,000  Level FlightAware ADS-B
Sun 10:14:02 PM 47.2820 -61.1670 57° Northeast 465 535 39,000  Level FlightAware ADS-B
Sun 10:14:42 PM 47.3270 -61.0660 57° Northeast 465 535 39,000  Level FlightAware ADS-B
Sun 10:15:37 PM 47.3920 -60.9180 57° Northeast 467 537 39,000  Level FlightAware ADS-B
Sun 10:16:17 PM 47.4320 -60.8270 57° Northeast 467 537 39,000  Level FlightAware ADS-B
Sun 10:16:57 PM 47.4720 -60.7360 57° Northeast 467 537 39,000  Level FlightAware ADS-B
Sun 10:17:37 PM 47.5120 -60.6450 57° Northeast 467 537 39,000  Level FlightAware ADS-B
Sun 10:18:17 PM 47.5520 -60.5530 57° Northeast 467 537 39,000  Level FlightAware ADS-B
Sun 10:18:57 PM 47.5920 -60.4620 57° Northeast 467 537 39,000  Level FlightAware ADS-B
Sun 10:19:37 PM 47.6320 -60.3710 57° Northeast 467 537 39,000  Level FlightAware ADS-B
Sun 10:20:27 PM 47.6820 -60.2560 57° Northeast 467 537 39,000  Level FlightAware ADS-B
Sun 10:21:07 PM 47.7220 -60.1650 57° Northeast 467 537 39,000  Level FlightAware ADS-B
Sun 10:21:42 PM 47.8190 -59.9250 59° Northeast 472 543 39,000  Level FlightAware ADS-B
Sun 10:23:42 PM 47.9610 -59.5870 58° Northeast 473 544 39,000  Level FlightAware ADS-B
Sun 10:24:37 PM 48.0240 -59.4350 58° Northeast 473 544 39,000  Level FlightAware ADS-B
Sun 10:25:22 PM 48.0740 -59.3130 58° Northeast 474 545 39,000  Level FlightAware ADS-B
Sun 10:26:02 PM 48.1210 -59.2000 58° Northeast 474 545 39,000  Level FlightAware ADS-B
Sun 10:27:02 PM 48.1900 -59.0310 58° Northeast 476 548 39,000  Level FlightAware ADS-B
Sun 10:27:52 PM 48.2470 -58.8920 58° Northeast 478 550 39,000  Level FlightAware ADS-B
Sun 10:28:57 PM 48.3210 -58.7080 59° Northeast 479 551 39,000  Level FlightAware ADS-B
Sun 10:30:02 PM 48.3970 -58.5190 59° Northeast 478 550 39,000  Level FlightAware ADS-B
Sun 10:30:57 PM 48.4570 -58.3690 59° Northeast 479 551 39,000  Level FlightAware ADS-B
Sun 10:31:27 PM 48.4940 -58.2760 59° Northeast 479 551 39,000  Level FlightAware ADS-B
Sun 10:32:22 PM 48.5500 -58.1170 62° Northeast 482 555 39,000  Level FlightAware ADS-B
Sun 10:33:37 PM 48.6300 -57.8890 62° Northeast 484 557 39,000  Level FlightAware ADS-B
Sun 10:34:22 PM 48.6750 -57.7590 62° Northeast 485 558 39,000  Level FlightAware ADS-B
Sun 10:35:02 PM 48.7180 -57.6370 62° Northeast 487 560 39,000  Level FlightAware ADS-B
Sun 10:36:12 PM 48.7910 -57.4250 62° Northeast 486 559 39,000  Level FlightAware ADS-B
Sun 10:36:57 PM 48.8380 -57.2880 62° Northeast 486 559 39,000  Level FlightAware ADS-B
Sun 10:37:42 PM 48.8840 -57.1540 62° Northeast 487 560 39,000  Level FlightAware ADS-B
Sun 10:39:17 PM 48.9830 -56.8630 63° Northeast 491 565 39,000  Level FlightAware ADS-B
Sun 10:40:02 PM 49.0290 -56.7250 63° Northeast 492 566 39,000  Level FlightAware ADS-B
Sun 10:40:57 PM 49.0850 -56.5580 63° Northeast 492 566 39,000  Level FlightAware ADS-B
Sun 10:41:32 PM 49.1210 -56.4480 63° Northeast 492 566 39,000  Level FlightAware ADS-B
Sun 10:42:22 PM 49.1730 -56.2920 63° Northeast 492 566 39,000  Level FlightAware ADS-B
Sun 10:43:07 PM 49.2180 -56.1550 63° Northeast 492 566 39,000  Level FlightAware ADS-B
Sun 10:44:27 PM 49.3000 -55.9030 63° Northeast 494 568 39,000  Level FlightAware ADS-B
Sun 10:45:22 PM 49.3560 -55.7310 63° Northeast 496 571 39,000  Level FlightAware ADS-B
Sun 10:45:57 PM 49.3910 -55.6220 64° Northeast 496 571 39,000  Level FlightAware ADS-B
Sun 10:46:37 PM 49.4310 -55.4960 64° Northeast 496 571 39,000  Level FlightAware ADS-B
Sun 10:47:27 PM 49.4820 -55.3360 64° Northeast 498 573 39,000  Level FlightAware ADS-B
Sun 10:48:07 PM 49.5220 -55.2100 64° Northeast 498 573 39,000  Level FlightAware ADS-B
Sun 10:48:52 PM 49.5670 -55.0670 64° Northeast 499 574 39,000  Level FlightAware ADS-B
Sun 10:49:32 PM 49.6070 -54.9380 64° Northeast 501 577 39,000  Level FlightAware ADS-B
Sun 10:50:07 PM 49.6420 -54.8250 64° Northeast 501 577 39,000  Level FlightAware ADS-B
Sun 10:50:52 PM 49.6870 -54.6810 64° Northeast 501 577 39,000  Level FlightAware ADS-B
Sun 10:51:32 PM 49.7270 -54.5520 64° Northeast 502 578 39,000  Level FlightAware ADS-B
Sun 10:52:32 PM 49.7860 -54.3580 65° Northeast 504 580 39,000  Level FlightAware ADS-B
Sun 10:53:32 PM 49.8450 -54.1630 65° Northeast 505 581 39,000  Level FlightAware ADS-B
Sun 10:54:57 PM 49.9300 -53.8830 65° Northeast 506 582 39,000  Level FlightAware ADS-B
Sun 10:55:37 PM 49.9690 -53.7510 65° Northeast 507 583 39,000  Level FlightAware ADS-B
Sun 10:57:07 PM 50.0570 -53.4540 65° Northeast 508 585 39,000  Level FlightAware ADS-B
Sun 10:57:52 PM 50.1000 -53.3070 65° Northeast 510 587 39,000  Level FlightAware ADS-B
Sun 10:58:42 PM 50.1500 -53.1350 66° East 511 588 39,000  Level FlightAware ADS-B
Sun 10:59:27 PM 50.1930 -52.9860 66° East 511 588 39,000  Level FlightAware ADS-B
Sun 11:00:12 PM 50.2360 -52.8360 66° East 512 589 39,000  Level FlightAware ADS-B
Sun 11:00:52 PM 50.2750 -52.6980 66° East 513 590 39,000  Level FlightAware ADS-B
Sun 11:01:37 PM 50.3140 -52.5620 66° East 514 592 39,000  Level FlightAware ADS-B
Sun 11:02:47 PM 50.3800 -52.3290 66° East 515 593 39,000  Level FlightAware ADS-B
Sun 11:03:47 PM 50.4360 -52.1280 66° East 516 594 39,000  Level FlightAware ADS-B
Sun 11:04:27 PM 50.4690 -52.0110 66° East 516 594 39,000  Level FlightAware ADS-B
Sun 11:05:17 PM 50.5100 -51.8660 66° East 516 594 39,000  Level FlightAware ADS-B
Sun 11:05:57 PM 50.5430 -51.7490 66° East 516 594 39,000  Level FlightAware ADS-B
Sun 11:06:37 PM 50.5760 -51.6320 66° East 516 594 39,000  Level FlightAware ADS-B
Sun 11:07:17 PM 50.6090 -51.5150 66° East 516 594 39,000  Level FlightAware ADS-B
Sun 11:07:57 PM 50.6420 -51.3980 66° East 516 594 39,000  Level FlightAware ADS-B
Sun 11:08:37 PM 50.6750 -51.2820 66° East 516 594 39,000  Level FlightAware ADS-B
Sun 11:09:27 PM 50.7170 -51.1350 66° East 516 594 39,000  Level FlightAware ADS-B
Sun 11:10:07 PM 50.7500 -51.0180 66° East 516 594 39,000  Level FlightAware ADS-B
Sun 11:10:47 PM 50.7830 -50.9010 66° East 516 594 39,000  Level FlightAware ADS-B
Sun 11:11:27 PM 50.8160 -50.7830 66° East 516 594 39,000  Level FlightAware ADS-B
Sun 11:12:17 PM 50.8570 -50.6370 66° East 516 594 39,000  Level FlightAware ADS-B
Sun 11:12:57 PM 50.8900 -50.5190 66° East 516 594 39,000  Level FlightAware ADS-B
Sun 11:13:20 PM 50.9667 -50.0500 66° East 530 610 39,000  Level Gander Center
Sun 11:13:46 PM 50.9667 -49.9667 90° East 520 598 39,000  Level Moncton Center
Sun 11:14:46 PM 51.0167 -49.7333 71° East 520 598 39,000  Level Moncton Center
Sun 11:15:20 PM 51.0333 -49.6000 79° East 530 610 39,000  Level Gander Center
Sun 11:16:20 PM 51.0667 -49.3833 76° East 530 610 39,000  Level Gander Center
Sun 11:16:51 PM 51.0833 -49.2667 77° East 540 621 39,000  Level Gander Center
Sun 11:17:20 PM 51.1000 -49.1500 77° East 530 610 39,000  Level Gander Center
Sun 11:17:51 PM 51.1167 -49.0167 79° East 530 610 39,000  Level Gander Center
Sun 11:18:20 PM 51.1167 -48.9333 90° East 530 610 39,000  Level Gander Center
Sun 11:20:00 PM 51.1654 -48.5938 77° East  Level FlightAware Approximate
Sun 11:27:00 PM 51.3594 -47.1604 77° East  Level FlightAware Approximate
Sun 11:28:00 PM 51.3857 -46.9547 78° East  Level FlightAware Approximate
Sun 11:29:00 PM 51.4116 -46.7487 79° East  Level FlightAware Approximate
Sun 11:30:00 PM 51.4371 -46.5424 79° East  Level FlightAware Approximate
Sun 11:31:00 PM 51.4623 -46.3360 79° East  Level FlightAware Approximate
Sun 11:32:00 PM 51.4853 -46.1288 80° East  Level FlightAware Approximate
Sun 11:33:00 PM 51.5076 -45.9212 80° East  Level FlightAware Approximate
Sun 11:34:00 PM 51.5295 -45.7135 80° East  Level FlightAware Approximate
Sun 11:35:00 PM 51.5510 -45.5056 80° East  Level FlightAware Approximate
Sun 11:36:00 PM 51.5722 -45.2975 81° East  Level FlightAware Approximate
Sun 11:37:00 PM 51.5929 -45.0892 81° East  Level FlightAware Approximate
Sun 11:38:00 PM 51.6134 -44.8807 81° East  Level FlightAware Approximate
Sun 11:39:00 PM 51.6334 -44.6720 81° East  Level FlightAware Approximate
Sun 11:40:00 PM 51.6531 -44.4631 81° East  Level FlightAware Approximate
Sun 11:41:00 PM 51.6724 -44.2541 81° East  Level FlightAware Approximate
Sun 11:42:00 PM 51.6913 -44.0448 82° East  Level FlightAware Approximate
Sun 11:43:00 PM 51.7099 -43.8354 82° East  Level FlightAware Approximate
Sun 11:44:00 PM 51.7281 -43.6259 82° East  Level FlightAware Approximate
Sun 11:45:00 PM 51.7459 -43.4161 82° East  Level FlightAware Approximate
Sun 11:46:00 PM 51.7634 -43.2062 82° East  Level FlightAware Approximate
Sun 11:47:00 PM 51.7804 -42.9962 82° East  Level FlightAware Approximate
Sun 11:48:00 PM 51.7971 -42.7859 83° East  Level FlightAware Approximate
Sun 11:49:00 PM 51.8134 -42.5756 83° East  Level FlightAware Approximate
Sun 11:50:00 PM 51.8306 -42.3653 82° East  Level FlightAware Approximate
Sun 11:51:00 PM 51.8476 -42.1549 82° East  Level FlightAware Approximate
Sun 11:52:00 PM 51.8643 -41.9444 83° East  Level FlightAware Approximate
Sun 11:53:00 PM 51.8806 -41.7337 83° East  Level FlightAware Approximate
Sun 11:54:00 PM 51.8965 -41.5229 83° East  Level FlightAware Approximate
Sun 11:55:00 PM 51.9120 -41.3119 83° East  Level FlightAware Approximate
Sun 11:56:00 PM 51.9272 -41.1007 83° East  Level FlightAware Approximate
Sun 11:57:00 PM 51.9420 -40.8895 83° East  Level FlightAware Approximate
Sun 11:58:00 PM 51.9564 -40.6781 84° East  Level FlightAware Approximate
Sun 11:59:00 PM 51.9704 -40.4665 84° East  Level FlightAware Approximate
Mon 12:00:00 AM 51.9841 -40.2548 84° East  Level FlightAware Approximate
Mon 12:01:00 AM 51.9973 -40.0430 84° East  Level FlightAware Approximate
Mon 12:02:00 AM 52.0239 -39.8347 77° East  Level FlightAware Approximate
Mon 12:03:00 AM 52.0535 -39.6271 77° East  Level FlightAware Approximate
Mon 12:04:00 AM 52.0828 -39.4192 77° East  Level FlightAware Approximate
Mon 12:05:00 AM 52.1117 -39.2111 77° East  Level FlightAware Approximate
Mon 12:06:00 AM 52.1402 -39.0027 77° East  Level FlightAware Approximate
Mon 12:07:00 AM 52.1684 -38.7940 78° East  Level FlightAware Approximate
Mon 12:08:00 AM 52.1962 -38.5850 78° East  Level FlightAware Approximate
Mon 12:09:00 AM 52.2236 -38.3758 78° East  Level FlightAware Approximate
Mon 12:10:00 AM 52.2507 -38.1663 78° East  Level FlightAware Approximate
Mon 12:11:00 AM 52.2774 -37.9566 78° East  Level FlightAware Approximate
Mon 12:12:00 AM 52.3037 -37.7467 78° East  Level FlightAware Approximate
Mon 12:13:00 AM 52.3296 -37.5364 79° East  Level FlightAware Approximate
Mon 12:14:00 AM 52.3552 -37.3260 79° East  Level FlightAware Approximate
Mon 12:15:00 AM 52.3804 -37.1152 79° East  Level FlightAware Approximate
Mon 12:16:00 AM 52.4052 -36.9043 79° East  Level FlightAware Approximate
Mon 12:17:00 AM 52.4296 -36.6931 79° East  Level FlightAware Approximate
Mon 12:18:00 AM 52.4537 -36.4817 79° East  Level FlightAware Approximate
Mon 12:19:00 AM 52.4774 -36.2701 80° East  Level FlightAware Approximate
Mon 12:20:00 AM 52.5007 -36.0582 80° East  Level FlightAware Approximate
Mon 12:21:00 AM 52.5236 -35.8461 80° East  Level FlightAware Approximate
Mon 12:22:00 AM 52.5462 -35.6338 80° East  Level FlightAware Approximate
Mon 12:23:00 AM 52.5684 -35.4212 80° East  Level FlightAware Approximate
Mon 12:24:00 AM 52.5901 -35.2085 80° East  Level FlightAware Approximate
Mon 12:25:00 AM 52.6116 -34.9956 81° East  Level FlightAware Approximate
Mon 12:26:00 AM 52.6326 -34.7824 81° East  Level FlightAware Approximate
Mon 12:27:00 AM 52.6532 -34.5690 81° East  Level FlightAware Approximate
Mon 12:28:00 AM 52.6735 -34.3555 81° East  Level FlightAware Approximate
Mon 12:29:00 AM 52.6934 -34.1417 81° East  Level FlightAware Approximate
Mon 12:30:00 AM 52.7129 -33.9278 81° East  Level FlightAware Approximate
Mon 12:31:00 AM 52.7320 -33.7136 82° East  Level FlightAware Approximate
Mon 12:32:00 AM 52.7507 -33.4993 82° East  Level FlightAware Approximate
Mon 12:33:00 AM 52.7690 -33.2848 82° East  Level FlightAware Approximate
Mon 12:34:00 AM 52.7870 -33.0701 82° East  Level FlightAware Approximate
Mon 12:35:00 AM 52.8046 -32.8552 82° East  Level FlightAware Approximate
Mon 12:36:00 AM 52.8217 -32.6402 82° East  Level FlightAware Approximate
Mon 12:37:00 AM 52.8385 -32.4250 83° East  Level FlightAware Approximate
Mon 12:38:00 AM 52.8549 -32.2096 83° East  Level FlightAware Approximate
Mon 12:39:00 AM 52.8709 -31.9941 83° East  Level FlightAware Approximate
Mon 12:40:00 AM 52.8865 -31.7784 83° East  Level FlightAware Approximate
Mon 12:41:00 AM 52.9017 -31.5631 83° East  Level FlightAware Approximate
Mon 12:42:00 AM 52.9165 -31.3477 83° East  Level FlightAware Approximate
Mon 12:43:00 AM 52.9309 -31.1321 84° East  Level FlightAware Approximate
Mon 12:44:00 AM 52.9449 -30.9164 84° East  Level FlightAware Approximate
Mon 12:45:00 AM 52.9585 -30.7006 84° East  Level FlightAware Approximate
Mon 12:46:00 AM 52.9718 -30.4846 84° East  Level FlightAware Approximate
Mon 12:47:00 AM 52.9846 -30.2685 84° East  Level FlightAware Approximate
Mon 12:48:00 AM 52.9971 -30.0522 84° East  Level FlightAware Approximate
Mon 12:49:00 AM 53.0068 -29.8355 86° East  Level FlightAware Approximate
Mon 12:50:00 AM 53.0154 -29.6187 86° East  Level FlightAware Approximate
Mon 12:51:00 AM 53.0236 -29.4017 86° East  Level FlightAware Approximate
Mon 12:52:00 AM 53.0315 -29.1847 86° East  Level FlightAware Approximate
Mon 12:53:00 AM 53.0389 -28.9676 87° East  Level FlightAware Approximate
Mon 12:54:00 AM 53.0459 -28.7504 87° East  Level FlightAware Approximate
Mon 12:55:00 AM 53.0526 -28.5332 87° East  Level FlightAware Approximate
Mon 12:56:00 AM 53.0588 -28.3159 87° East  Level FlightAware Approximate
Mon 12:57:00 AM 53.0647 -28.0985 87° East  Level FlightAware Approximate
Mon 12:58:00 AM 53.0701 -27.8811 88° East  Level FlightAware Approximate
Mon 12:59:00 AM 53.0752 -27.6636 88° East  Level FlightAware Approximate
Mon 01:00:00 AM 53.0798 -27.4461 88° East  Level FlightAware Approximate
Mon 01:01:00 AM 53.0841 -27.2285 88° East  Level FlightAware Approximate
Mon 01:02:00 AM 53.0880 -27.0109 88° East  Level FlightAware Approximate
Mon 01:03:00 AM 53.0914 -26.7932 88° East  Level FlightAware Approximate
Mon 01:04:00 AM 53.0945 -26.5756 89° East  Level FlightAware Approximate
Mon 01:05:00 AM 53.0972 -26.3579 89° East  Level FlightAware Approximate
Mon 01:06:00 AM 53.0995 -26.1401 89° East  Level FlightAware Approximate
Mon 01:07:00 AM 53.1014 -25.9224 89° East  Level FlightAware Approximate
Mon 01:08:00 AM 53.1029 -25.7046 89° East  Level FlightAware Approximate
Mon 01:09:00 AM 53.1039 -25.4868 89° East  Level FlightAware Approximate
Mon 01:10:00 AM 53.1046 -25.2690 90° East  Level FlightAware Approximate
Mon 01:11:00 AM 53.1049 -25.0512 90° East  Level FlightAware Approximate
Mon 01:12:00 AM 53.1048 -24.8334 90° East  Level FlightAware Approximate
Mon 01:13:00 AM 53.1043 -24.6156 90° East  Level FlightAware Approximate
Mon 01:14:00 AM 53.1034 -24.3978 90° East  Level FlightAware Approximate
Mon 01:15:00 AM 53.1021 -24.1800 90° East  Level FlightAware Approximate
Mon 01:16:00 AM 53.1004 -23.9622 91° East  Level FlightAware Approximate
Mon 01:17:00 AM 53.0983 -23.7445 91° East  Level FlightAware Approximate
Mon 01:18:00 AM 53.0958 -23.5268 91° East  Level FlightAware Approximate
Mon 01:19:00 AM 53.0929 -23.3091 91° East  Level FlightAware Approximate
Mon 01:20:00 AM 53.0897 -23.0914 91° East  Level FlightAware Approximate
Mon 01:21:00 AM 53.0860 -22.8738 92° East  Level FlightAware Approximate
Mon 01:22:00 AM 53.0819 -22.6562 92° East  Level FlightAware Approximate
Mon 01:23:00 AM 53.0774 -22.4386 92° East  Level FlightAware Approximate
Mon 01:24:00 AM 53.0726 -22.2211 92° East  Level FlightAware Approximate
Mon 01:25:00 AM 53.0673 -22.0037 92° East  Level FlightAware Approximate
Mon 01:26:00 AM 53.0616 -21.7863 92° East  Level FlightAware Approximate
Mon 01:27:00 AM 53.0556 -21.5689 93° East  Level FlightAware Approximate
Mon 01:28:00 AM 53.0491 -21.3517 93° East  Level FlightAware Approximate
Mon 01:29:00 AM 53.0423 -21.1345 93° East  Level FlightAware Approximate
Mon 01:30:00 AM 53.0350 -20.9173 93° East  Level FlightAware Approximate
Mon 01:31:00 AM 53.0274 -20.7003 93° East  Level FlightAware Approximate
Mon 01:32:00 AM 53.0193 -20.4833 93° East  Level FlightAware Approximate
Mon 01:33:00 AM 53.0109 -20.2664 94° East  Level FlightAware Approximate
Mon 01:34:00 AM 53.0021 -20.0496 94° East  Level FlightAware Approximate
Mon 01:35:00 AM 52.9995 -19.8324 90° East  Level FlightAware Approximate
Mon 01:36:00 AM 52.9985 -19.6152 90° East  Level FlightAware Approximate
Mon 01:37:00 AM 52.9971 -19.3979 91° East  Level FlightAware Approximate
Mon 01:38:00 AM 52.9953 -19.1807 91° East  Level FlightAware Approximate
Mon 01:39:00 AM 52.9931 -18.9635 91° East  Level FlightAware Approximate
Mon 01:40:00 AM 52.9905 -18.7463 91° East  Level FlightAware Approximate
Mon 01:41:00 AM 52.9875 -18.5291 91° East  Level FlightAware Approximate
Mon 01:42:00 AM 52.9841 -18.3120 91° East  Level FlightAware Approximate
Mon 01:43:00 AM 52.9804 -18.0949 92° East  Level FlightAware Approximate
Mon 01:44:00 AM 52.9762 -17.8778 92° East  Level FlightAware Approximate
Mon 01:45:00 AM 52.9716 -17.6608 92° East  Level FlightAware Approximate
Mon 01:46:00 AM 52.9666 -17.4439 92° East  Level FlightAware Approximate
Mon 01:47:00 AM 52.9613 -17.2270 92° East  Level FlightAware Approximate
Mon 01:48:00 AM 52.9555 -17.0101 92° East  Level FlightAware Approximate
Mon 01:49:00 AM 52.9494 -16.7933 93° East  Level FlightAware Approximate
Mon 01:50:00 AM 52.9428 -16.5766 93° East  Level FlightAware Approximate
Mon 01:50:27 AM 52.8940 -13.2550 93° East 482 555 39,000  Level FlightAware ADS-B
Mon 01:51:00 AM 52.9359 -16.3599 93° East  Level FlightAware Approximate
Mon 01:51:07 AM 52.8870 -13.1300 95° East 482 555 39,000  Level FlightAware ADS-B
Mon 01:51:52 AM 52.8670 -12.9320 99° East 477 549 39,000  Level FlightAware ADS-B
Mon 01:52:47 AM 52.8530 -12.7320 97° East 476 548 39,000  Level FlightAware ADS-B
Mon 01:53:32 AM 52.8390 -12.5580 98° East 475 547 39,000  Level FlightAware ADS-B
Mon 01:54:07 AM 52.8290 -12.4340 98° East 474 545 39,000  Level FlightAware ADS-B
Mon 01:54:57 AM 52.8140 -12.2530 98° East 473 544 39,000  Level FlightAware ADS-B
Mon 01:55:37 AM 52.8020 -12.1090 98° East 473 544 39,000  Level FlightAware ADS-B
Mon 01:57:17 AM 52.7740 -11.7680 98° East 471 542 39,000  Level FlightAware ADS-B
Mon 01:57:47 AM 52.7650 -11.6630 98° East 470 541 39,000  Level FlightAware ADS-B
Mon 02:00:00 AM 52.7260 -11.1885 98° East  Level FlightAware Approximate
Mon 02:01:00 AM 52.7078 -10.9748 98° East  Level FlightAware Approximate
Mon 02:02:00 AM 52.6893 -10.7612 98° East  Level FlightAware Approximate
Mon 02:02:17 AM 52.6780 -10.7070 98° East 472 543 39,000  Level FlightAware ADS-B
Mon 02:04:00 AM 52.6455 -10.3408 98° East  Level FlightAware Approximate
Mon 02:05:00 AM 52.6261 -10.1277 98° East  Level FlightAware Approximate
Mon 02:06:00 AM 52.6063 -9.9149 99° East  Level FlightAware Approximate
Mon 02:06:07 AM 52.5990 -9.9080 99° East 467 537 39,000  Level FlightAware ADS-B
Mon 02:06:52 AM 52.5800 -9.7220 99° East 468 539 39,000  Level FlightAware ADS-B
Mon 02:09:00 AM 52.5366 -9.2688 99° East  Level FlightAware Approximate
Mon 02:09:02 AM 52.5330 -9.2810 99° East 467 537 39,000  Level FlightAware ADS-B
Mon 02:10:17 AM 52.5050 -9.0240 100° East 468 539 39,000 -957 Level FlightAware ADS-B
Mon 02:10:36 AM 52.4957 -8.9352 100° East 452 520 37,500 -2,432 Descending FlightAware UK
Mon 02:10:54 AM 52.4889 -8.8727 100° East 452 520 37,500 3,462 Level FlightAware UK
Mon 02:11:02 AM 52.4860 -8.8480 100° East 468 539 39,000  Climbing FlightAware ADS-B
Mon 02:11:18 AM 52.4795 -8.7891 100° East 452 520 37,500 -2,824 Descending FlightAware UK
Mon 02:11:36 AM 52.4724 -8.7266 100° East 454 522 37,400 3,750 Descending FlightAware UK
Mon 02:11:42 AM 52.4710 -8.7170 100° East 468 539 39,000  Climbing FlightAware ADS-B
Mon 02:12:00 AM 52.4628 -8.6428 100° East 454 522 37,400 -2,500 Descending FlightAware UK
Mon 02:12:18 AM 52.4559 -8.5801 100° East 454 522 37,500 3,556 Climbing FlightAware UK
Mon 02:12:27 AM 52.4530 -8.5600 100° East 469 540 39,000  Climbing FlightAware ADS-B
Mon 02:12:42 AM 52.4463 -8.4963 100° East 456 525 37,500 -2,727 Descending FlightAware UK
Mon 02:13:00 AM 52.4389 -8.4336 101° East 454 522 37,500 3,600 Level FlightAware UK
Mon 02:13:07 AM 52.4370 -8.4200 101° East 468 539 39,000 -250 Climbing FlightAware ADS-B
Mon 02:13:24 AM 52.4293 -8.3499 101° East 454 522 37,400 -2,571 Descending FlightAware UK
Mon 02:13:42 AM 52.4220 -8.2861 101° East 454 522 37,500 4,174 Climbing FlightAware UK
Mon 02:13:47 AM 52.4210 -8.2790 101° East 468 539 39,000 -250 Climbing FlightAware ADS-B
Mon 02:14:06 AM 52.4123 -8.2023 101° East 454 522 37,400 -2,432 Descending FlightAware UK
Mon 02:14:24 AM 52.4048 -8.1395 101° East 454 522 37,500 3,692 Climbing FlightAware UK
Mon 02:14:32 AM 52.4020 -8.1210 101° East 469 540 39,000  Climbing FlightAware ADS-B
Mon 02:14:48 AM 52.3950 -8.0559 101° East 458 527 37,500 -2,647 Descending FlightAware UK
Mon 02:15:06 AM 52.3877 -7.9930 101° East 460 529 37,500 3,750 Level FlightAware UK
Mon 02:15:12 AM 52.3860 -7.9840 101° East 470 541 39,000  Climbing FlightAware ADS-B
Mon 02:15:30 AM 52.3777 -7.9092 101° East 462 532 37,500 -2,500 Descending FlightAware UK
Mon 02:15:48 AM 52.3701 -7.8463 101° East 462 532 37,500 3,333 Level FlightAware UK
Mon 02:15:57 AM 52.3670 -7.8280 101° East 470 541 39,000  Climbing FlightAware ADS-B
Mon 02:16:12 AM 52.3600 -7.7626 101° East 460 529 37,500 -2,727 Descending FlightAware UK
Mon 02:16:30 AM 52.3523 -7.6997 101° East 458 527 37,500 3,600 Level FlightAware UK
Mon 02:16:37 AM 52.3500 -7.6840 101° East 470 541 39,000  Climbing FlightAware ADS-B
Mon 02:16:54 AM 52.3421 -7.6164 101° East 452 520 37,500 -2,571 Descending FlightAware UK
Mon 02:17:12 AM 52.3343 -7.5540 102° East 454 522 37,500 3,913 Level FlightAware UK
Mon 02:17:17 AM 52.3340 -7.5550 102° East 470 541 39,000  Climbing FlightAware ADS-B
Mon 02:17:36 AM 52.3242 -7.4708 102° East 456 525 37,500 -2,595 Descending FlightAware UK
Mon 02:17:54 AM 52.3163 -7.4087 102° East 458 527 37,400 3,462 Descending FlightAware UK
Mon 02:18:02 AM 52.3130 -7.3880 102° East 471 542 39,000 250 Climbing FlightAware ADS-B
Mon 02:18:18 AM 52.3058 -7.3255 102° East 456 525 37,500 -2,647 Descending FlightAware UK
Mon 02:18:36 AM 52.2979 -7.2629 102° East 460 529 37,500 3,750 Level FlightAware UK
Mon 02:18:42 AM 52.2960 -7.2530 102° East 471 542 39,000  Climbing FlightAware ADS-B
Mon 02:19:00 AM 52.2874 -7.1793 102° East 460 529 37,500 -2,667 Descending FlightAware UK
Mon 02:19:18 AM 52.2793 -7.1160 102° East 462 532 37,400 4,091 Descending FlightAware UK
Mon 02:19:22 AM 52.2780 -7.1110 102° East 469 540 39,000 250 Climbing FlightAware ADS-B
Mon 02:19:42 AM 52.2686 -7.0327 102° East 462 532 37,500 -2,368 Descending FlightAware UK
Mon 02:20:00 AM 52.2607 -6.9704 102° East 462 532 37,500 3,600 Level FlightAware UK
Mon 02:20:07 AM 52.2610 -6.9750 102° East 469 540 39,000 -250 Climbing FlightAware ADS-B
Mon 02:20:24 AM 52.2501 -6.8874 102° East 460 529 37,400 -3,257 Descending FlightAware UK
Mon 02:20:42 AM 52.2398 -6.8273 106° East 450 518 37,100 2,870 Descending FlightAware UK
Mon 02:20:47 AM 52.2370 -6.8180 106° East 464 534 38,500 -1,750 Climbing FlightAware ADS-B
Mon 02:21:06 AM 52.2208 -6.7493 106° East 452 520 36,400 -4,054 Descending FlightAware UK
Mon 02:21:24 AM 52.2062 -6.6910 112° Southeast 456 525 36,000 2,538 Descending FlightAware UK
Mon 02:21:32 AM 52.2010 -6.6740 112° Southeast 465 535 37,500 -1,000 Climbing FlightAware ADS-B
Mon 02:21:48 AM 52.1864 -6.6135 112° Southeast 456 525 35,600 -3,706 Descending FlightAware UK
Mon 02:22:06 AM 52.1718 -6.5555 112° Southeast 454 522 35,400 3,000 Descending FlightAware UK
Mon 02:22:12 AM 52.1690 -6.5470 112° Southeast 463 533 36,800 -1,250 Climbing FlightAware ADS-B
Mon 02:22:30 AM 52.1521 -6.4784 112° Southeast 452 520 34,900 -3,833 Descending FlightAware UK
Mon 02:22:48 AM 52.1373 -6.4205 113° Southeast 452 520 34,500 2,000 Descending FlightAware UK
Mon 02:22:57 AM 52.1310 -6.3970 113° Southeast 466 536 35,800 -1,500 Climbing FlightAware ADS-B
Mon 02:23:12 AM 52.1173 -6.3434 113° Southeast 454 522 33,900 -4,000 Descending FlightAware UK
Mon 02:23:30 AM 52.1025 -6.2852 112° Southeast 454 522 33,600 2,880 Descending FlightAware UK
Mon 02:23:37 AM 52.0990 -6.2710 112° Southeast 466 536 35,100 -1,250 Climbing FlightAware ADS-B
Mon 02:23:54 AM 52.0831 -6.2073 112° Southeast 454 522 33,100 -3,771 Descending FlightAware UK
Mon 02:24:12 AM 52.0685 -6.1491 112° Southeast 452 520 32,900 3,391 Descending FlightAware UK
Mon 02:24:17 AM 52.0670 -6.1450 112° Southeast 464 534 34,400 -1,000 Climbing FlightAware ADS-B
Mon 02:24:42 AM 52.0435 -6.0529 112° Southeast 448 516 32,400 -1,067 Descending FlightAware UK
Mon 02:25:02 AM 52.0370 -5.9880 112° Southeast 467 537 33,600 -1,000 Climbing FlightAware ADS-B
Mon 02:25:18 AM 52.0344 -5.9275 112° Southeast 440 506 31,800 -3,882 Descending FlightAware UK
Mon 02:25:36 AM 52.0321 -5.8637 93° East 442 509 31,400 3,789 Descending FlightAware UK
Mon 02:25:37 AM 52.0330 -5.8710 93° East 480 552 33,000 333 Climbing FlightAware ADS-B
Mon 02:25:54 AM 52.0305 -5.7985 93° East 454 522 31,500 -2,571 Descending FlightAware UK
Mon 02:26:12 AM 52.0269 -5.7330 95° East 456 525 31,500 3,214 Level FlightAware UK
Mon 02:26:22 AM 52.0240 -5.7120 95° East 488 562 33,000  Climbing FlightAware ADS-B
Mon 02:26:42 AM 52.0131 -5.6248 95° East 456 525 31,500 -2,368 Descending FlightAware UK
Mon 02:27:00 AM 52.0028 -5.5614 105° East 456 525 31,500 4,500 Level FlightAware UK
Mon 02:27:02 AM 52.0040 -5.5680 105° East 487 560 33,000  Climbing FlightAware ADS-B
Mon 02:27:18 AM 51.9927 -5.4980 105° East 458 527 31,500 -2,647 Descending FlightAware UK
Mon 02:27:36 AM 51.9825 -5.4346 105° East 456 525 31,500 2,647 Level FlightAware UK
Mon 02:27:52 AM 51.9750 -5.3890 105° East 486 559 33,000  Climbing FlightAware ADS-B
Mon 02:28:12 AM 51.9620 -5.3083 105° East 456 525 31,500  Descending FlightAware UK
Mon 02:28:32 AM 51.9510 -5.2460 105° East 485 558 33,000  Climbing FlightAware ADS-B
Mon 02:28:48 AM 51.9406 -5.1815 105° East 458 527 31,500 -2,647 Descending FlightAware UK
Mon 02:29:06 AM 51.9302 -5.1192 105° East 458 527 31,500 3,750 Level FlightAware UK
Mon 02:29:12 AM 51.9280 -5.1060 105° East 482 555 33,000  Climbing FlightAware ADS-B
Mon 02:29:30 AM 51.9163 -5.0358 105° East 454 522 31,500  Descending FlightAware UK
Mon 02:29:57 AM 51.9030 -4.9550 105° East 472 543 33,000  Climbing FlightAware ADS-B
Mon 02:30:12 AM 51.8924 -4.8928 105° East 452 520 31,500 -2,727 Descending FlightAware UK
Mon 02:30:30 AM 51.8822 -4.8318 105° East 450 518 31,500 3,600 Level FlightAware UK
Mon 02:30:37 AM 51.8790 -4.8150 105° East 471 542 33,000  Climbing FlightAware ADS-B
Mon 02:30:54 AM 51.8685 -4.7505 105° East 448 516 31,500 -2,914 Descending FlightAware UK
Mon 02:31:12 AM 51.8582 -4.6896 105° East 450 518 31,300 3,652 Descending FlightAware UK
Mon 02:31:17 AM 51.8570 -4.6820 105° East 472 543 32,900 -667 Climbing FlightAware ADS-B
Mon 02:31:48 AM 51.8375 -4.5678 105° East 442 509 30,900 -800 Descending FlightAware UK
Mon 02:32:02 AM 51.8310 -4.5280 105° East 459 528 32,300 -800 Climbing FlightAware ADS-B
Mon 02:32:18 AM 51.8207 -4.4694 105° East 430 495 30,500 -3,353 Descending FlightAware UK
Mon 02:32:36 AM 51.8106 -4.4107 105° East 430 495 30,400 3,750 Descending FlightAware UK
Mon 02:32:42 AM 51.8080 -4.3960 105° East 456 525 32,000 250 Climbing FlightAware ADS-B
Mon 02:33:00 AM 51.7972 -4.3324 105° East 422 486 30,500 -2,667 Descending FlightAware UK
Mon 02:33:18 AM 51.7874 -4.2760 106° East 410 472 30,400 4,091 Descending FlightAware UK
Mon 02:33:22 AM 51.7860 -4.2690 106° East 433 498 32,000 240 Climbing FlightAware ADS-B
Mon 02:33:43 AM 51.7744 -4.2018 106° East 408 470 30,500 -2,308 Descending FlightAware UK
Mon 02:34:01 AM 51.7649 -4.1472 106° East 406 467 30,500 3,750 Level FlightAware UK
Mon 02:34:07 AM 51.7630 -4.1360 106° East 424 488 32,000  Climbing FlightAware ADS-B
Mon 02:34:25 AM 51.7520 -4.0745 106° East 408 470 30,500 -2,500 Descending FlightAware UK
Mon 02:34:43 AM 51.7425 -4.0202 106° East 408 470 30,500 3,333 Level FlightAware UK
Mon 02:34:52 AM 51.7390 -4.0020 106° East 420 483 32,000  Climbing FlightAware ADS-B
Mon 02:35:07 AM 51.7298 -3.9480 106° East 408 470 30,500  Descending FlightAware UK
Mon 02:35:32 AM 51.7180 -3.8810 106° East 418 481 32,000 2,045 Climbing FlightAware ADS-B
Mon 02:35:51 AM 51.7062 -3.8159 106° East 418 481 32,000 -2,571 Level FlightAware ADS-B
Mon 02:36:07 AM 51.6980 -3.7685 106° East 406 467 30,500  Descending FlightAware UK
Mon 02:36:35 AM 51.6832 -3.6867 106° East 416 479 32,000  Climbing FlightAware ADS-B
Mon 02:36:55 AM 51.6723 -3.6264 106° East 406 467 30,500  Descending FlightAware UK
Mon 02:37:07 AM 51.6661 -3.5922 106° East 414 476 32,000  Climbing FlightAware ADS-B
Mon 02:37:31 AM 51.6532 -3.5204 106° East 404 465 30,500  Descending FlightAware UK
Mon 02:37:37 AM 51.6502 -3.5040 106° East 413 475 32,000  Climbing FlightAware ADS-B
Mon 02:37:55 AM 51.6404 -3.4495 106° East 400 460 30,500 -2,500 Descending FlightAware UK
Mon 02:38:13 AM 51.6309 -3.3974 106° East 398 458 30,500 4,091 Level FlightAware UK
Mon 02:38:17 AM 51.6300 -3.3930 106° East 411 473 32,000  Climbing FlightAware ADS-B
Mon 02:38:37 AM 51.6180 -3.3266 106° East 400 460 30,500 -2,368 Descending FlightAware UK
Mon 02:38:55 AM 51.6088 -3.2736 106° East 402 463 30,500 3,462 Level FlightAware UK
Mon 02:39:03 AM 51.6070 -3.2560 106° East 414 476 32,000  Climbing FlightAware ADS-B
Mon 02:39:25 AM 51.5968 -3.1836 106° East 402 463 30,500  Descending FlightAware UK
Mon 02:39:39 AM 51.5913 -3.1427 106° East 414 476 32,000 -600 Climbing FlightAware ADS-B
Mon 02:39:55 AM 51.5849 -3.0937 106° East 400 460 30,200 -1,313 Descending FlightAware UK
Mon 02:40:11 AM 51.5790 -3.0480 106° East 409 471 31,300 125 Climbing FlightAware ADS-B
Mon 02:40:43 AM 51.5664 -2.9530 102° East 397 457 30,300 -3,536 Descending FlightAware ADS-B
Mon 02:41:07 AM 51.5573 -2.8845 102° East 386 444 28,000 -2,211 Descending FlightAware UK
Mon 02:41:21 AM 51.5519 -2.8452 102° East 385 443 28,900 -2,200 Climbing FlightAware ADS-B
Mon 02:41:37 AM 51.5460 -2.8013 102° East 380 437 26,900 -2,118 Descending FlightAware UK
Mon 02:41:55 AM 51.5395 -2.7538 102° East 376 433 27,700 -2,429 Climbing FlightAware ADS-B
Mon 02:42:19 AM 51.5306 -2.6874 102° East 374 430 25,200 -2,250 Descending FlightAware UK
Mon 02:42:27 AM 51.5275 -2.6657 102° East 372 428 26,500 -2,000 Climbing FlightAware ADS-B
Mon 02:42:43 AM 51.5218 -2.6225 102° East 370 426 24,400 -2,129 Descending FlightAware UK
Mon 02:42:58 AM 51.5163 -2.5832 102° East 366 421 25,400 -2,167 Climbing FlightAware ADS-B
Mon 02:43:19 AM 51.5086 -2.5271 102° East 360 414 23,100 -2,000 Descending FlightAware UK
Mon 02:43:31 AM 51.5043 -2.4964 102° East 365 420 24,300 -1,800 Climbing FlightAware ADS-B
Mon 02:43:49 AM 51.4977 -2.4482 102° East 360 414 22,200 -1,800 Descending FlightAware UK
Mon 02:44:01 AM 51.4934 -2.4181 102° East 356 410 23,400 -2,000 Climbing FlightAware ADS-B
Mon 02:44:19 AM 51.4873 -2.3723 102° East 352 405 21,200 -2,129 Descending FlightAware UK
Mon 02:44:32 AM 51.4829 -2.3419 102° East 345 397 22,300 -2,200 Climbing FlightAware ADS-B
Mon 02:44:49 AM 51.4767 -2.2971 102° East 342 394 20,100 -2,400 Descending FlightAware UK
Mon 02:45:02 AM 51.4725 -2.2673 102° East 346 398 21,100 -2,500 Climbing FlightAware ADS-B
Mon 02:45:25 AM 51.4641 -2.2067 102° East 340 391 18,600 -2,000 Descending FlightAware UK
Mon 02:45:32 AM 51.4617 -2.1908 102° East 353 406 20,100 -1,000 Climbing FlightAware ADS-B
Mon 02:45:55 AM 51.4534 -2.1306 102° East 338 389 18,100 -1,161 Descending FlightAware UK
Mon 02:46:03 AM 51.4508 -2.1133 102° East 341 392 19,500 -1,250 Climbing FlightAware ADS-B
Mon 02:46:19 AM 51.4450 -2.0720 102° East 334 384 17,600 -1,200 Descending FlightAware UK
Mon 02:46:33 AM 51.4404 -2.0403 102° East 331 381 18,900 -1,600 Climbing FlightAware ADS-B
Mon 02:46:49 AM 51.4348 -2.0003 102° East 326 375 16,800 -2,118 Descending FlightAware UK
Mon 02:47:07 AM 51.4289 -1.9586 102° East 331 381 17,700 667 Climbing FlightAware ADS-B
Mon 02:47:25 AM 51.4231 -1.9167 102° East 330 380 17,200 -4,216 Descending FlightAware ADS-B
Mon 02:47:44 AM 51.4201 -1.8707 102° East 322 371 15,100 -1,688 Descending FlightAware UK
Mon 02:47:57 AM 51.4180 -1.8384 102° East 322 371 16,300 -1,600 Climbing FlightAware ADS-B
Mon 02:48:14 AM 51.4157 -1.7996 102° East 316 364 14,300 -1,548 Descending FlightAware UK
Mon 02:48:28 AM 51.4134 -1.7676 102° East 316 364 15,500 -1,600 Climbing FlightAware ADS-B
Mon 02:48:44 AM 51.4108 -1.7303 102° East 310 357 13,500 -2,000 Descending FlightAware UK
Mon 02:48:58 AM 51.4080 -1.6980 102° East 315 362 14,500 -1,667 Climbing FlightAware ADS-B
Mon 02:49:20 AM 51.4039 -1.6475 102° East 308 354 12,500 -1,355 Descending FlightAware UK
Mon 02:49:29 AM 51.4020 -1.6275 102° East 312 359 13,800 -1,250 Climbing FlightAware ADS-B
Mon 02:49:44 AM 51.3991 -1.5923 102° East 302 348 12,000 -581 Descending FlightAware UK
Mon 02:50:00 AM 51.3960 -1.5578 102° East 295 339 13,500 -500 Climbing FlightAware ADS-B
Mon 02:50:20 AM 51.3924 -1.5153 102° East 282 325 11,700 -774 Descending FlightAware UK
Mon 02:50:31 AM 51.3908 -1.4925 102° East 281 323 13,100 1,317 Climbing FlightAware ADS-B
Mon 02:51:01 AM 51.3861 -1.4318 97° East 273 314 12,600 -2,939 Descending FlightAware ADS-B
Mon 02:51:20 AM 51.3833 -1.3942 97° East 262 302 10,700 -1,400 Descending FlightAware UK
Mon 02:51:31 AM 51.3814 -1.3717 97° East 273 314 11,900 -1,200 Climbing FlightAware ADS-B
Mon 02:51:50 AM 51.3785 -1.3341 97° East 264 304 10,100 -889 Descending FlightAware UK
Mon 02:51:58 AM 51.3772 -1.3182 97° East 267 307 11,500 -1,000 Climbing FlightAware ADS-B
Mon 02:52:14 AM 51.3748 -1.2872 97° East 262 302 9,700 -1,125 Descending FlightAware UK
Mon 02:52:30 AM 51.3723 -1.2564 97° East 263 303 10,900 766 Climbing FlightAware ADS-B
Mon 02:53:01 AM 51.3677 -1.1984 97° East 260 299 10,300 -2,571 Descending FlightAware ADS-B
Mon 02:53:26 AM 51.3639 -1.1496 97° East 256 295 8,500 -581 Descending FlightAware UK
Mon 02:53:32 AM 51.3629 -1.1384 97° East 259 298 10,000 2,432 Climbing FlightAware ADS-B
Mon 02:54:03 AM 51.3582 -1.0805 97° East 259 298 10,000 -1,875 Level FlightAware ADS-B
Mon 02:54:20 AM 51.3555 -1.0470 97° East 256 295 8,500  Descending FlightAware UK
Mon 02:54:29 AM 51.3542 -1.0310 97° East 259 298 10,000  Climbing FlightAware ADS-B
Mon 02:54:44 AM 51.3520 -1.0019 97° East 254 292 8,500  Descending FlightAware UK
Mon 02:54:54 AM 51.3503 -0.9830 97° East 259 298 10,000  Climbing FlightAware ADS-B
Mon 02:55:14 AM 51.3472 -0.9451 97° East 256 295 8,500  Descending FlightAware UK
Mon 02:55:25 AM 51.3455 -0.9255 97° East 259 298 10,000  Climbing FlightAware ADS-B
Mon 02:55:44 AM 51.3424 -0.8878 97° East 256 295 8,500  Descending FlightAware UK
Mon 02:55:55 AM 51.3408 -0.8679 97° East 259 298 10,000 2,571 Climbing FlightAware ADS-B
Mon 02:56:19 AM 51.3370 -0.8225 98° East 260 299 10,000  Level FlightAware ADS-B
Mon 02:56:39 AM 51.3338 -0.7845 98° East 260 299 10,000 -343 Level FlightAware ADS-B
Mon 02:56:54 AM 51.3314 -0.7558 98° East 257 296 9,800 -968 Descending FlightAware ADS-B
Mon 02:57:10 AM 51.3289 -0.7262 98° East 256 295 9,500 -1,091 Descending FlightAware ADS-B
Mon 02:57:27 AM 51.3263 -0.6950 98° East 255 293 9,200 -938 Descending FlightAware ADS-B
Mon 02:57:42 AM 51.3238 -0.6665 98° East 257 296 9,000 -400 Descending FlightAware ADS-B
Mon 02:57:57 AM 51.3214 -0.6376 98° East 256 295 9,000  Level FlightAware ADS-B
Mon 02:58:13 AM 51.3189 -0.6083 98° East 257 296 9,000  Level FlightAware ADS-B
Mon 02:58:27 AM 51.3166 -0.5818 98° East 256 295 9,000  Level FlightAware ADS-B
Mon 02:58:42 AM 51.3142 -0.5535 98° East 256 295 9,000  Level FlightAware ADS-B
Mon 02:58:58 AM 51.3117 -0.5243 98° East 257 296 9,000  Level FlightAware ADS-B
Mon 02:59:15 AM 51.3089 -0.4919 98° East 255 293 9,000  Level FlightAware ADS-B
Mon 02:59:30 AM 51.3064 -0.4633 98° East 253 291 9,000 -273 Level FlightAware ADS-B
Mon 02:59:37 AM 51.3056 -0.4501 96° East 253 291 8,900 -1,200 Descending FlightAware ADS-B
Mon 02:59:40 AM 51.3055 -0.4444 92° East 252 290 8,800 -857 Descending FlightAware ADS-B
Mon 02:59:44 AM 51.3058 -0.4372 86° East 252 290 8,800 -667 Level FlightAware ADS-B
Mon 02:59:49 AM 51.3068 -0.4297 78° East 251 289 8,700 -750 Descending FlightAware ADS-B
Mon 02:59:52 AM 51.3081 -0.4237 71° East 250 288 8,700 -667 Level FlightAware ADS-B
Mon 02:59:58 AM 51.3111 -0.4144 63° Northeast 247 284 8,600 -1,200 Descending FlightAware ADS-B
Mon 03:00:02 AM 51.3142 -0.4081 52° Northeast 247 284 8,500 -1,500 Descending FlightAware ADS-B
Mon 03:00:06 AM 51.3170 -0.4037 45° Northeast 245 282 8,400 -857 Descending FlightAware ADS-B
Mon 03:00:09 AM 51.3201 -0.4000 37° Northeast 244 281 8,400 -750 Level FlightAware ADS-B
Mon 03:00:14 AM 51.3247 -0.3959 29° Northeast 244 281 8,300 -1,200 Descending FlightAware ADS-B
Mon 03:00:19 AM 51.3299 -0.3930 19° North 243 280 8,200 -1,500 Descending FlightAware ADS-B
Mon 03:00:22 AM 51.3333 -0.3919 11° North 242 278 8,100 -667 Descending FlightAware ADS-B
Mon 03:00:28 AM 51.3397 -0.3912 North 242 278 8,100 -667 Level FlightAware ADS-B
Mon 03:00:31 AM 51.3437 -0.3911 North 244 281 8,000 -316 Descending FlightAware ADS-B
Mon 03:00:47 AM 51.3611 -0.3919 358° North 244 281 8,000 -194 Level FlightAware ADS-B
Mon 03:01:02 AM 51.3787 -0.3929 358° North 245 282 7,900 -600 Descending FlightAware ADS-B
Mon 03:01:17 AM 51.3963 -0.3937 358° North 245 282 7,700 -632 Descending FlightAware ADS-B
Mon 03:01:21 AM 51.3996 -0.3937 360° North 245 282 7,700 -750 Level FlightAware ADS-B
Mon 03:01:25 AM 51.4044 -0.3932 North 246 283 7,600 -857 Descending FlightAware ADS-B
Mon 03:01:28 AM 51.4081 -0.3922 North 247 284 7,600 -1,000 Level FlightAware ADS-B
Mon 03:01:31 AM 51.4117 -0.3906 16° North 247 284 7,500 -750 Descending FlightAware ADS-B
Mon 03:01:36 AM 51.4162 -0.3875 23° Northeast 247 284 7,500  Level FlightAware ADS-B
Mon 03:01:39 AM 51.4195 -0.3845 29° Northeast 247 284 7,500 -857 Level FlightAware ADS-B
Mon 03:01:43 AM 51.4228 -0.3806 37° Northeast 247 284 7,400 -667 Descending FlightAware ADS-B
Mon 03:01:48 AM 51.4268 -0.3741 45° Northeast 247 284 7,400  Level FlightAware ADS-B
Mon 03:01:52 AM 51.4295 -0.3682 54° Northeast 247 284 7,400 -857 Level FlightAware ADS-B
Mon 03:01:55 AM 51.4313 -0.3631 60° Northeast 248 285 7,300 -857 Descending FlightAware ADS-B
Mon 03:01:59 AM 51.4330 -0.3562 69° East 247 284 7,300  Level FlightAware ADS-B
Mon 03:02:03 AM 51.4341 -0.3495 75° East 247 284 7,300 -750 Level FlightAware ADS-B
Mon 03:02:07 AM 51.4346 -0.3419 84° East 248 285 7,200 -667 Descending FlightAware ADS-B
Mon 03:02:12 AM 51.4342 -0.3317 94° East 247 284 7,200  Level FlightAware ADS-B
Mon 03:02:16 AM 51.4335 -0.3262 102° East 247 284 7,200 -600 Level FlightAware ADS-B
Mon 03:02:22 AM 51.4310 -0.3152 110° East 246 283 7,100 -750 Descending FlightAware ADS-B
Mon 03:02:32 AM 51.4261 -0.2995 116° Southeast 246 283 7,000 -720 Descending FlightAware ADS-B
Mon 03:02:47 AM 51.4179 -0.2750 118° Southeast 246 283 6,800 -692 Descending FlightAware ADS-B
Mon 03:02:58 AM 51.4121 -0.2575 118° Southeast 246 283 6,700 -400 Descending FlightAware ADS-B
Mon 03:03:02 AM 51.4099 -0.2501 115° Southeast 245 282 6,700 -667 Level FlightAware ADS-B
Mon 03:03:07 AM 51.4083 -0.2424 108° East 245 282 6,600 -667 Descending FlightAware ADS-B
Mon 03:03:11 AM 51.4073 -0.2341 101° East 244 281 6,600 -750 Level FlightAware ADS-B
Mon 03:03:15 AM 51.4069 -0.2282 96° East 244 281 6,500 -632 Descending FlightAware ADS-B
Mon 03:03:30 AM 51.4059 -0.2006 93° East 244 281 6,400 -563 Descending FlightAware ADS-B
Mon 03:03:47 AM 51.4052 -0.1710 92° East 242 278 6,200 -563 Descending FlightAware ADS-B
Mon 03:04:02 AM 51.4045 -0.1437 92° East 242 278 6,100 -387 Descending FlightAware ADS-B
Mon 03:04:18 AM 51.4037 -0.1154 93° East 244 281 6,000 -375 Descending FlightAware ADS-B
Mon 03:04:34 AM 51.4029 -0.0865 93° East 242 278 5,900 -375 Descending FlightAware ADS-B
Mon 03:04:50 AM 51.4021 -0.0580 93° East 235 270 5,800 -387 Descending FlightAware ADS-B
Mon 03:05:05 AM 51.4015 -0.0326 92° East 225 259 5,700 -632 Descending FlightAware ADS-B
Mon 03:05:09 AM 51.4019 -0.0257 85° East 222 255 5,600 -1,200 Descending FlightAware ADS-B
Mon 03:05:15 AM 51.4036 -0.0162 74° East 220 253 5,500 -545 Descending FlightAware ADS-B
Mon 03:05:20 AM 51.4054 -0.0102 64° Northeast 218 251 5,500  Level FlightAware ADS-B
Mon 03:05:23 AM 51.4071 -0.0063 55° Northeast 217 250 5,500 -1,000 Level FlightAware ADS-B
Mon 03:05:26 AM 51.4097 -0.0019 47° Northeast 215 247 5,400 -857 Descending FlightAware ADS-B
Mon 03:05:30 AM 51.4124 0.0016 39° Northeast 213 245 5,400  Level FlightAware ADS-B
Mon 03:05:33 AM 51.4152 0.0042 31° Northeast 211 243 5,400 -857 Level FlightAware ADS-B
Mon 03:05:37 AM 51.4184 0.0063 22° Northeast 209 241 5,300 -667 Descending FlightAware ADS-B
Mon 03:05:42 AM 51.4232 0.0079 12° North 208 239 5,300 -667 Level FlightAware ADS-B
Mon 03:05:46 AM 51.4270 0.0083 North 206 237 5,200 -857 Descending FlightAware ADS-B
Mon 03:05:49 AM 51.4303 0.0082 359° North 205 236 5,200 -1,000 Level FlightAware ADS-B
Mon 03:05:58 AM 51.4385 0.0074 356° North 202 232 5,000 -857 Descending FlightAware ADS-B
Mon 03:06:03 AM 51.4432 0.0062 351° North 200 230 5,000 -857 Level FlightAware ADS-B
Mon 03:06:12 AM 51.4505 0.0015 338° Northwest 199 229 4,800 -857 Descending FlightAware ADS-B
Mon 03:06:17 AM 51.4538 -0.0027 322° Northwest 197 227 4,800 -667 Level FlightAware ADS-B
Mon 03:06:21 AM 51.4563 -0.0073 311° West 197 227 4,700 -500 Descending FlightAware ADS-B
Mon 03:06:29 AM 51.4601 -0.0169 303° West 195 224 4,700 -522 Level FlightAware ADS-B
Mon 03:06:44 AM 51.4666 -0.0369 298° West 195 224 4,500 -774 Descending FlightAware ADS-B
Mon 03:07:00 AM 51.4730 -0.0568 297° West 195 224 4,300 -632 Descending FlightAware ADS-B
Mon 03:07:03 AM 51.4743 -0.0615 294° West 195 224 4,300 -600 Level FlightAware ADS-B
Mon 03:07:10 AM 51.4762 -0.0705 289° West 195 224 4,200 -462 Descending FlightAware ADS-B
Mon 03:07:16 AM 51.4772 -0.0789 281° West 195 224 4,200  Level FlightAware ADS-B
Mon 03:07:19 AM 51.4775 -0.0841 275° West 194 223 4,200 -600 Level FlightAware ADS-B
Mon 03:07:36 AM 51.4780 -0.1076 272° West 194 223 4,000 -909 Descending FlightAware ADS-B
Mon 03:07:52 AM 51.4781 -0.1314 270° West 194 223 3,700 -1,125 Descending FlightAware ADS-B
Mon 03:08:08 AM 51.4782 -0.1540 270° West 191 220 3,400 -1,125 Descending FlightAware ADS-B
Mon 03:08:24 AM 51.4782 -0.1755 270° West 190 219 3,100 -1,125 Descending FlightAware ADS-B
Mon 03:08:40 AM 51.4782 -0.1979 270° West 189 217 2,800 -3,818 Descending FlightAware ADS-B
Mon 03:08:57 AM 51.4781 -0.2224 270° West 190 219 1,000 -973 Descending FlightAware UK
Mon 03:09:17 AM 51.4781 -0.2505 270° West 185 213 2,200 -1,167 Climbing FlightAware ADS-B
Mon 03:09:33 AM 51.4780 -0.2721 270° West 182 209 300 -750 Descending FlightAware UK
Mon 03:09:57 AM 51.4780 -0.2840 270° West 176 203 1,700 1,102 Climbing FlightAware ADS-B
Mon 03:10:22 AM 51.4780 -0.3230 270° West 166 191 1,200 -900 Descending FlightAware ADS-B
Mon 03:10:57 AM 51.4780 -0.3650 270° West 137 158 800 -800 Descending FlightAware ADS-B
Mon 03:11:22 AM 51.4780 -0.3910 270° West 132 152 400 -764 Descending FlightAware ADS-B
Mon 03:11:52 AM 51.4780 -0.4170 270° West 130 150 100 -600 Descending FlightAware ADS-B
Mon 03:12:17 AM 51.4780 -0.4300 270° West 131 151 -240 Descending FlightAware ADS-B
Mon 03:12:42 AM 51.4780 -0.4530 270° West 131 151  Level FlightAware ADS-B

Login

Don't have an account? Register now (free) for customized features, flight alerts, and more!